createdAt,value
2023-05-14T00:02:05.898Z,94.39
2023-05-14T00:04:34.569Z,95.11
2023-05-14T00:07:05.773Z,95.26
2023-05-14T00:09:35.274Z,95.67
2023-05-14T00:12:04.386Z,94.95
2023-05-14T00:14:32.578Z,95.68
2023-05-14T00:17:01.487Z,95.42
2023-05-14T00:19:29.704Z,95.67
2023-05-14T00:21:57.892Z,96.13
2023-05-14T00:24:27.708Z,96.55
2023-05-14T00:26:56.094Z,96.34
2023-05-14T00:29:24.358Z,97.05
2023-05-14T00:31:52.771Z,96.56
2023-05-14T00:34:31.467Z,96.43
2023-05-14T00:36:59.777Z,97.87
2023-05-14T00:39:29.299Z,98.40
2023-05-14T00:41:57.481Z,97.55
2023-05-14T00:44:25.671Z,97.50
2023-05-14T00:46:54.335Z,98.10
2023-05-14T00:49:22.760Z,98.25
2023-05-14T00:51:51.224Z,98.35
2023-05-14T00:54:20.985Z,97.96
2023-05-14T00:56:51.869Z,97.09
2023-05-14T00:59:20.217Z,97.68
2023-05-14T01:01:48.520Z,97.35
2023-05-14T01:04:16.968Z,98.25
2023-05-14T01:06:56.424Z,98.23
2023-05-14T01:09:38.104Z,97.20
2023-05-14T01:12:16.470Z,97.61
2023-05-14T01:14:55.763Z,97.69
2023-05-14T01:17:27.314Z,98.78
2023-05-14T01:19:57.798Z,97.40
2023-05-14T01:22:27.413Z,97.04
2023-05-14T01:24:55.894Z,100.00
2023-05-14T01:27:33.169Z,99.86
2023-05-14T01:30:15.732Z,99.58
2023-05-14T01:32:49.845Z,98.63
2023-05-14T01:35:19.095Z,98.70
2023-05-14T01:37:50.104Z,99.05
2023-05-14T01:40:18.735Z,100.00
2023-05-14T01:42:47.369Z,99.92
2023-05-14T01:45:16.352Z,99.98
2023-05-14T01:47:44.522Z,100.00
2023-05-14T01:50:12.759Z,100.00
2023-05-14T01:52:41.070Z,100.00
2023-05-14T01:55:11.612Z,100.00
2023-05-14T01:57:39.897Z,100.00
2023-05-14T02:00:09.638Z,100.00
2023-05-14T02:02:43.865Z,100.00
2023-05-14T02:05:14.517Z,100.00
2023-05-14T02:07:52.694Z,100.00
2023-05-14T02:10:22.753Z,100.00
2023-05-14T02:12:51.377Z,100.00
2023-05-14T02:15:19.844Z,100.00
2023-05-14T02:17:48.645Z,100.00
2023-05-14T02:20:17.439Z,100.00
2023-05-14T02:22:46.414Z,100.00
2023-05-14T02:25:15.120Z,100.00
2023-05-14T02:27:44.918Z,100.00
2023-05-14T02:30:14.108Z,100.00
2023-05-14T02:32:42.533Z,100.00
2023-05-14T02:35:11.324Z,100.00
2023-05-14T02:37:39.601Z,100.00
2023-05-14T02:40:09.718Z,100.00
2023-05-14T02:42:38.012Z,100.00
2023-05-14T02:45:09.474Z,100.00
2023-05-14T02:47:38.340Z,100.00
2023-05-14T02:50:08.456Z,100.00
2023-05-14T02:52:36.730Z,100.00
2023-05-14T02:55:05.906Z,100.00
2023-05-14T02:57:34.119Z,100.00
2023-05-14T03:00:02.367Z,100.00
2023-05-14T03:02:32.572Z,100.00
2023-05-14T03:05:01.335Z,100.00
2023-05-14T03:07:29.560Z,100.00
2023-05-14T03:10:00.350Z,100.00
2023-05-14T03:12:28.644Z,100.00
2023-05-14T03:14:59.147Z,100.00
2023-05-14T03:17:27.435Z,100.00
2023-05-14T03:19:57.010Z,100.00
2023-05-14T03:22:25.278Z,100.00
2023-05-14T03:24:53.720Z,100.00
2023-05-14T03:27:21.964Z,100.00
2023-05-14T03:29:50.167Z,100.00
2023-05-14T03:32:19.675Z,100.00
2023-05-14T03:34:48.434Z,100.00
2023-05-14T03:37:18.057Z,100.00
2023-05-14T03:39:46.328Z,100.00
2023-05-14T03:42:14.604Z,100.00
2023-05-14T03:44:43.024Z,100.00
2023-05-14T03:47:11.699Z,100.00
2023-05-14T03:49:40.064Z,100.00
2023-05-14T03:52:10.826Z,100.00
2023-05-14T03:54:41.373Z,100.00
2023-05-14T03:57:09.688Z,100.00
2023-05-14T03:59:37.979Z,100.00
2023-05-14T04:02:06.324Z,100.00
2023-05-14T04:04:34.810Z,100.00
2023-05-14T04:07:08.791Z,100.00
2023-05-14T04:09:37.125Z,100.00
2023-05-14T04:12:08.651Z,100.00
2023-05-14T04:14:36.897Z,100.00
2023-05-14T04:17:05.689Z,100.00
2023-05-14T04:19:33.954Z,100.00
2023-05-14T04:22:02.182Z,100.00
2023-05-14T04:24:30.374Z,100.00
2023-05-14T04:27:02.254Z,100.00
2023-05-14T04:29:34.505Z,100.00
2023-05-14T04:32:06.194Z,100.00
2023-05-14T04:34:35.221Z,100.00
2023-05-14T04:37:04.232Z,100.00
2023-05-14T04:39:32.446Z,100.00
2023-05-14T04:42:00.972Z,100.00
2023-05-14T04:44:29.223Z,100.00
2023-05-14T04:46:58.765Z,100.00
2023-05-14T04:49:27.164Z,100.00
2023-05-14T04:51:55.417Z,100.00
2023-05-14T04:54:23.740Z,100.00
2023-05-14T04:56:52.167Z,100.00
2023-05-14T04:59:20.398Z,100.00
2023-05-14T05:01:48.694Z,100.00
2023-05-14T05:04:18.513Z,100.00
2023-05-14T05:06:46.795Z,100.00
2023-05-14T05:09:16.342Z,100.00
2023-05-14T05:11:44.578Z,100.00
2023-05-14T05:14:12.846Z,100.00
2023-05-14T05:16:41.132Z,100.00
2023-05-14T05:19:09.420Z,100.00
2023-05-14T05:21:40.874Z,100.00
2023-05-14T05:24:09.524Z,100.00
2023-05-14T05:26:37.840Z,100.00
2023-05-14T05:29:06.553Z,100.00
2023-05-14T05:31:35.175Z,100.00
2023-05-14T05:34:06.041Z,100.00
2023-05-14T05:36:34.282Z,100.00
2023-05-14T05:39:03.861Z,100.00
2023-05-14T05:41:32.083Z,100.00
2023-05-14T05:44:00.320Z,100.00
2023-05-14T05:46:28.611Z,100.00
2023-05-14T05:48:56.838Z,100.00
2023-05-14T05:51:25.619Z,100.00
2023-05-14T05:53:53.848Z,100.00
2023-05-14T05:56:23.490Z,100.00
2023-05-14T05:58:51.680Z,100.00
2023-05-14T06:01:20.109Z,100.00
2023-05-14T06:03:48.816Z,100.00
2023-05-14T06:06:17.234Z,100.00
2023-05-14T06:08:45.525Z,100.00
2023-05-14T06:11:13.720Z,100.00
2023-05-14T06:13:43.278Z,100.00
2023-05-14T06:16:11.606Z,100.00
2023-05-14T06:18:39.907Z,100.00
2023-05-14T06:21:08.130Z,99.37
2023-05-14T06:23:36.330Z,99.79
2023-05-14T06:26:04.554Z,99.74
2023-05-14T06:28:32.759Z,98.67
2023-05-14T06:31:02.454Z,98.30
2023-05-14T06:33:31.305Z,99.14
2023-05-14T06:36:00.982Z,99.10
2023-05-14T06:38:29.399Z,98.68
2023-05-14T06:40:57.662Z,98.38
2023-05-14T06:43:26.034Z,98.19
2023-05-14T06:45:54.722Z,96.05
2023-05-14T06:48:24.435Z,95.65
2023-05-14T06:50:52.742Z,95.42
2023-05-14T06:53:20.970Z,95.07
2023-05-14T06:55:49.388Z,94.84
2023-05-14T06:58:17.614Z,94.58
2023-05-14T07:00:46.071Z,92.09
2023-05-14T07:03:14.262Z,91.31
2023-05-14T07:05:45.981Z,90.69
2023-05-14T07:08:14.256Z,89.67
2023-05-14T07:10:42.526Z,88.18
2023-05-14T07:13:10.744Z,86.92
2023-05-14T07:15:38.967Z,84.90
2023-05-14T07:18:07.292Z,86.07
2023-05-14T07:20:35.619Z,85.21
2023-05-14T07:23:05.183Z,84.96
2023-05-14T07:25:33.892Z,85.13
2023-05-14T07:28:02.154Z,82.11
2023-05-14T07:30:30.389Z,83.68
2023-05-14T07:32:58.615Z,82.11
2023-05-14T07:35:26.999Z,82.19
2023-05-14T07:37:55.308Z,80.29
2023-05-14T07:40:25.267Z,77.24
2023-05-14T07:42:53.667Z,78.30
2023-05-14T07:45:21.832Z,78.29
2023-05-14T07:47:51.884Z,78.30
2023-05-14T07:50:20.737Z,77.40
2023-05-14T07:52:49.186Z,78.80
2023-05-14T07:55:17.988Z,77.13
2023-05-14T07:57:47.802Z,78.21
2023-05-14T08:00:17.163Z,78.67
2023-05-14T08:02:45.670Z,78.85
2023-05-14T08:05:14.049Z,80.06
2023-05-14T08:07:42.446Z,78.21
2023-05-14T08:10:11.646Z,79.60
2023-05-14T08:12:40.053Z,80.00
2023-05-14T08:15:11.297Z,78.11
2023-05-14T08:17:39.563Z,77.46
2023-05-14T08:20:11.957Z,77.80
2023-05-14T08:22:40.252Z,78.07
2023-05-14T08:25:09.317Z,79.22
2023-05-14T08:27:37.654Z,77.30
2023-05-14T08:30:07.706Z,76.72
2023-05-14T08:32:38.590Z,79.03
2023-05-14T08:35:08.347Z,78.31
2023-05-14T08:37:36.554Z,78.68
2023-05-14T08:40:05.785Z,78.60
2023-05-14T08:42:34.883Z,78.42
2023-05-14T08:45:05.310Z,78.93
2023-05-14T08:47:36.017Z,76.83
2023-05-14T08:50:07.405Z,74.85
2023-05-14T08:52:36.458Z,75.43
2023-05-14T08:55:06.873Z,75.71
2023-05-14T08:57:36.257Z,75.75
2023-05-14T09:00:08.419Z,78.18
2023-05-14T09:02:38.697Z,77.84
2023-05-14T09:05:09.279Z,75.25
2023-05-14T09:07:37.810Z,77.88
2023-05-14T09:10:08.949Z,79.17
2023-05-14T09:12:37.228Z,78.03
2023-05-14T09:15:07.518Z,76.96
2023-05-14T09:17:37.535Z,77.76
2023-05-14T09:20:08.259Z,76.91
2023-05-14T09:22:36.558Z,76.57
2023-05-14T09:25:07.326Z,78.03
2023-05-14T09:27:36.312Z,78.00
2023-05-14T09:30:11.006Z,76.24
2023-05-14T09:32:44.070Z,76.64
2023-05-14T09:35:18.545Z,76.25
2023-05-14T09:37:48.744Z,77.52
2023-05-14T09:40:19.776Z,75.85
2023-05-14T09:42:49.304Z,76.22
2023-05-14T09:45:18.293Z,76.69
2023-05-14T09:47:48.138Z,78.57
2023-05-14T09:50:16.476Z,78.90
2023-05-14T09:52:44.811Z,78.41
2023-05-14T09:55:13.065Z,78.34
2023-05-14T09:57:41.318Z,76.45
2023-05-14T10:00:12.746Z,76.88
2023-05-14T10:02:43.137Z,77.75
2023-05-14T10:05:38.565Z,78.12
2023-05-14T10:08:11.372Z,77.83
2023-05-14T10:10:39.938Z,79.11
2023-05-14T10:13:16.004Z,79.15
2023-05-14T10:15:48.529Z,80.34
2023-05-14T10:18:21.029Z,79.20
2023-05-14T10:21:01.767Z,79.49
2023-05-14T10:23:30.295Z,79.71
2023-05-14T10:25:59.374Z,78.60
2023-05-14T10:28:28.600Z,78.97
2023-05-14T10:30:56.926Z,77.85
2023-05-14T10:33:25.185Z,77.88
2023-05-14T10:36:05.426Z,77.31
2023-05-14T10:38:36.811Z,78.12
2023-05-14T10:41:07.214Z,76.93
2023-05-14T10:43:39.694Z,77.17
2023-05-14T10:46:09.563Z,76.50
2023-05-14T10:48:39.230Z,76.97
2023-05-14T10:51:11.866Z,78.32
2023-05-14T10:53:43.515Z,78.55
2023-05-14T10:56:14.172Z,77.52
2023-05-14T10:58:45.237Z,79.00
2023-05-14T11:01:14.832Z,77.79
2023-05-14T11:03:45.540Z,78.60
2023-05-14T11:06:17.188Z,77.64
2023-05-14T11:08:46.514Z,75.93
2023-05-14T11:11:15.252Z,74.53
2023-05-14T11:13:45.733Z,75.87
2023-05-14T11:16:23.571Z,76.35
2023-05-14T11:18:55.842Z,77.44
2023-05-14T11:21:25.474Z,76.08
2023-05-14T11:23:55.768Z,76.36
2023-05-14T11:26:25.951Z,76.99
2023-05-14T11:28:54.338Z,77.05
2023-05-14T11:31:24.278Z,77.26
2023-05-14T11:33:54.317Z,76.77
2023-05-14T11:36:23.146Z,75.84
2023-05-14T11:38:52.843Z,76.44
2023-05-14T11:41:23.221Z,76.59
2023-05-14T11:43:51.904Z,76.21
2023-05-14T11:46:20.668Z,76.17
2023-05-14T11:48:49.288Z,74.69
2023-05-14T11:51:17.456Z,74.11
2023-05-14T11:53:47.595Z,75.32
2023-05-14T11:56:17.332Z,75.16
2023-05-14T11:58:49.923Z,74.34
2023-05-14T12:01:18.192Z,73.38
2023-05-14T12:03:46.603Z,74.51
2023-05-14T12:06:32.543Z,74.13
2023-05-14T12:09:01.596Z,74.18
2023-05-14T12:11:33.903Z,75.83
2023-05-14T12:14:02.502Z,75.45
2023-05-14T12:16:33.491Z,74.83
2023-05-14T12:19:03.551Z,74.09
2023-05-14T12:21:32.147Z,73.58
2023-05-14T12:24:00.922Z,74.93
2023-05-14T12:26:29.358Z,75.09
2023-05-14T12:29:02.073Z,73.51
2023-05-14T12:31:31.173Z,73.58
2023-05-14T12:34:00.023Z,75.03
2023-05-14T12:36:28.627Z,72.94
2023-05-14T12:39:00.819Z,74.92
2023-05-14T12:41:29.250Z,73.30
2023-05-14T12:43:58.990Z,73.40
2023-05-14T12:46:28.788Z,73.98
2023-05-14T12:48:57.818Z,73.36
2023-05-14T12:51:26.311Z,73.42
2023-05-14T12:53:55.006Z,73.78
2023-05-14T12:56:27.773Z,72.90
2023-05-14T12:58:57.260Z,73.50
2023-05-14T13:01:26.884Z,73.96
2023-05-14T13:03:55.550Z,72.61
2023-05-14T13:06:23.824Z,72.21
2023-05-14T13:08:52.122Z,71.90
2023-05-14T13:11:21.189Z,73.27
2023-05-14T13:13:49.432Z,73.91
2023-05-14T13:16:17.741Z,71.04
2023-05-14T13:18:47.366Z,72.85
2023-05-14T13:21:15.576Z,72.22
2023-05-14T13:23:43.795Z,71.90
2023-05-14T13:26:12.070Z,73.48
2023-05-14T13:28:40.283Z,73.45
2023-05-14T13:31:11.855Z,73.48
2023-05-14T13:33:46.091Z,72.48
2023-05-14T13:36:16.182Z,73.20
2023-05-14T13:38:45.852Z,72.93
2023-05-14T13:41:14.462Z,72.46
2023-05-14T13:43:42.688Z,71.76
2023-05-14T13:46:10.931Z,72.19
2023-05-14T13:48:39.126Z,72.81
2023-05-14T13:51:08.693Z,72.91
2023-05-14T13:53:36.924Z,73.17
2023-05-14T13:56:06.492Z,72.56
2023-05-14T13:58:34.727Z,71.16
2023-05-14T14:01:03.111Z,71.45
2023-05-14T14:03:34.493Z,68.41
2023-05-14T14:06:03.403Z,69.63
2023-05-14T14:08:32.966Z,70.50
2023-05-14T14:11:01.381Z,70.72
2023-05-14T14:13:29.705Z,69.74
2023-05-14T14:15:57.942Z,68.13
2023-05-14T14:18:26.295Z,67.29
2023-05-14T14:20:54.667Z,66.32
2023-05-14T14:23:22.941Z,65.36
2023-05-14T14:25:52.463Z,65.46
2023-05-14T14:28:20.762Z,64.92
2023-05-14T14:30:49.023Z,64.72
2023-05-14T14:33:20.345Z,64.12
2023-05-14T14:35:50.162Z,63.10
2023-05-14T14:38:20.794Z,62.66
2023-05-14T14:40:49.076Z,62.64
2023-05-14T14:43:18.748Z,61.34
2023-05-14T14:45:48.886Z,59.57
2023-05-14T14:48:26.509Z,59.08
2023-05-14T14:50:55.702Z,59.88
2023-05-14T14:53:24.918Z,61.75
2023-05-14T14:55:53.560Z,58.81
2023-05-14T14:58:23.901Z,59.38
2023-05-14T15:00:54.871Z,60.22
2023-05-14T15:03:23.955Z,59.23
2023-05-14T15:05:53.425Z,59.21
2023-05-14T15:08:25.568Z,60.54
2023-05-14T15:10:53.977Z,61.69
2023-05-14T15:13:24.579Z,62.03
2023-05-14T15:15:53.292Z,61.62
2023-05-14T15:18:22.213Z,59.48
2023-05-14T15:20:50.714Z,59.12
2023-05-14T15:23:18.969Z,59.35
2023-05-14T15:25:47.168Z,59.55
2023-05-14T15:28:15.542Z,58.49
2023-05-14T15:30:45.202Z,60.30
2023-05-14T15:33:16.593Z,60.32
2023-05-14T15:35:44.818Z,59.15
2023-05-14T15:38:13.125Z,58.29
2023-05-14T15:40:42.012Z,58.66
2023-05-14T15:43:10.265Z,59.14
2023-05-14T15:45:38.479Z,59.63
2023-05-14T15:48:08.271Z,59.94
2023-05-14T15:50:36.587Z,60.07
2023-05-14T15:53:04.893Z,59.98
2023-05-14T15:55:33.224Z,59.38
2023-05-14T15:58:01.956Z,59.72
2023-05-14T16:00:30.258Z,57.52
2023-05-14T16:02:58.761Z,59.17
2023-05-14T16:05:28.464Z,59.35
2023-05-14T16:07:56.690Z,59.79
2023-05-14T16:10:25.229Z,59.78
2023-05-14T16:12:54.003Z,60.46
2023-05-14T16:15:22.352Z,59.51
2023-05-14T16:17:50.735Z,59.35
2023-05-14T16:20:19.208Z,61.25
2023-05-14T16:22:48.882Z,61.12
2023-05-14T16:25:18.636Z,61.34
2023-05-14T16:27:46.997Z,62.19
2023-05-14T16:30:15.420Z,60.73
2023-05-14T16:32:43.724Z,60.08
2023-05-14T16:35:11.971Z,60.67
2023-05-14T16:37:40.199Z,59.55
2023-05-14T16:40:11.982Z,59.27
2023-05-14T16:42:40.542Z,59.39
2023-05-14T16:45:10.462Z,59.15
2023-05-14T16:47:38.758Z,58.77
2023-05-14T16:50:08.687Z,57.93
2023-05-14T16:52:36.946Z,58.16
2023-05-14T16:55:06.084Z,57.98
2023-05-14T16:57:35.634Z,56.24
2023-05-14T17:00:06.202Z,56.70
2023-05-14T17:02:34.597Z,58.42
2023-05-14T17:05:04.034Z,57.79
2023-05-14T17:07:32.603Z,57.17
2023-05-14T17:10:01.194Z,57.04
2023-05-14T17:12:29.545Z,56.67
2023-05-14T17:14:59.121Z,58.59
2023-05-14T17:17:27.384Z,58.08
2023-05-14T17:19:55.646Z,57.73
2023-05-14T17:22:23.889Z,57.44
2023-05-14T17:24:52.116Z,57.20
2023-05-14T17:27:20.334Z,58.18
2023-05-14T17:29:51.091Z,57.56
2023-05-14T17:32:20.828Z,58.31
2023-05-14T17:34:49.042Z,58.94
2023-05-14T17:37:17.342Z,58.59
2023-05-14T17:39:45.546Z,59.17
2023-05-14T17:42:13.770Z,58.79
2023-05-14T17:44:42.229Z,59.02
2023-05-14T17:47:10.512Z,59.27
2023-05-14T17:49:40.108Z,59.65
2023-05-14T17:52:08.804Z,59.04
2023-05-14T17:54:37.012Z,58.48
2023-05-14T17:57:05.467Z,58.32
2023-05-14T17:59:33.961Z,58.46
2023-05-14T18:02:07.955Z,57.76
2023-05-14T18:04:36.198Z,58.30
2023-05-14T18:07:08.507Z,58.42
2023-05-14T18:09:37.232Z,57.78
2023-05-14T18:12:06.161Z,57.61
2023-05-14T18:14:34.363Z,57.92
2023-05-14T18:17:02.649Z,59.21
2023-05-14T18:19:31.669Z,58.85
2023-05-14T18:21:59.882Z,59.29
2023-05-14T18:24:29.426Z,61.37
2023-05-14T18:26:57.642Z,62.45
2023-05-14T18:29:25.931Z,62.27
2023-05-14T18:31:54.165Z,63.05
2023-05-14T18:34:22.493Z,63.16
2023-05-14T18:36:50.985Z,63.25
2023-05-14T18:39:19.284Z,63.92
2023-05-14T18:41:49.360Z,64.51
2023-05-14T18:44:17.572Z,65.42
2023-05-14T18:46:46.049Z,65.85
2023-05-14T18:49:14.405Z,65.83
2023-05-14T18:51:42.671Z,66.10
2023-05-14T18:54:10.882Z,67.25
2023-05-14T18:56:40.062Z,67.08
2023-05-14T18:59:10.244Z,67.75
2023-05-14T19:01:38.571Z,67.93
2023-05-14T19:04:07.374Z,69.68
2023-05-14T19:06:36.553Z,70.72
2023-05-14T19:09:05.188Z,71.22
2023-05-14T19:11:33.501Z,71.41
2023-05-14T19:14:02.139Z,71.16
2023-05-14T19:16:31.836Z,72.38
2023-05-14T19:19:00.302Z,73.86
2023-05-14T19:21:28.610Z,74.42
2023-05-14T19:23:56.836Z,74.92
2023-05-14T19:26:25.193Z,75.64
2023-05-14T19:28:58.387Z,75.50
2023-05-14T19:31:27.200Z,76.45
2023-05-14T19:33:56.883Z,75.56
2023-05-14T19:36:25.228Z,76.60
2023-05-14T19:38:53.484Z,75.98
2023-05-14T19:41:21.816Z,75.41
2023-05-14T19:43:50.044Z,76.28
2023-05-14T19:46:18.695Z,76.43
2023-05-14T19:48:48.482Z,76.76
2023-05-14T19:51:18.036Z,76.73
2023-05-14T19:53:46.824Z,77.04
2023-05-14T19:56:15.602Z,77.90
2023-05-14T19:58:44.202Z,77.84
2023-05-14T20:01:12.720Z,78.56
2023-05-14T20:03:41.460Z,79.09
2023-05-14T20:06:18.569Z,79.00
2023-05-14T20:08:46.797Z,79.24
2023-05-14T20:11:15.744Z,79.38
2023-05-14T20:13:44.043Z,79.56
2023-05-14T20:16:16.755Z,78.91
2023-05-14T20:18:45.152Z,78.00
2023-05-14T20:21:13.541Z,78.75
2023-05-14T20:23:43.111Z,79.98
2023-05-14T20:26:11.329Z,79.52
2023-05-14T20:28:39.528Z,79.48
2023-05-14T20:31:07.962Z,80.20
2023-05-14T20:33:36.497Z,81.13
2023-05-14T20:36:05.316Z,81.14
2023-05-14T20:38:34.982Z,81.64
2023-05-14T20:41:04.685Z,82.44
2023-05-14T20:43:32.994Z,83.07
2023-05-14T20:46:01.542Z,83.45
2023-05-14T20:48:29.770Z,83.49
2023-05-14T20:50:58.031Z,83.81
2023-05-14T20:53:28.293Z,84.01
2023-05-14T20:55:56.844Z,84.27
2023-05-14T20:58:26.663Z,84.54
2023-05-14T21:00:54.934Z,85.47
2023-05-14T21:03:23.305Z,85.52
2023-05-14T21:05:52.434Z,85.40
2023-05-14T21:08:20.698Z,86.14
2023-05-14T21:10:48.944Z,86.89
2023-05-14T21:13:17.210Z,86.28
2023-05-14T21:15:46.967Z,86.66
2023-05-14T21:18:15.702Z,87.50
2023-05-14T21:20:43.977Z,87.43
2023-05-14T21:23:12.762Z,86.83
2023-05-14T21:25:41.012Z,86.62
2023-05-14T21:28:09.316Z,86.59
2023-05-14T21:30:37.628Z,86.98
2023-05-14T21:33:07.483Z,86.86
2023-05-14T21:35:35.708Z,87.23
2023-05-14T21:38:04.096Z,87.71
2023-05-14T21:40:32.430Z,87.80
2023-05-14T21:43:00.650Z,89.04
2023-05-14T21:45:29.179Z,89.07
2023-05-14T21:47:57.858Z,88.73
2023-05-14T21:50:27.596Z,88.64
2023-05-14T21:52:55.853Z,88.52
2023-05-14T21:55:25.009Z,89.78
2023-05-14T21:57:53.481Z,90.04
2023-05-14T22:00:24.131Z,89.80
2023-05-14T22:02:57.714Z,90.54
2023-05-14T22:05:27.556Z,90.40
2023-05-14T22:07:58.656Z,90.40
2023-05-14T22:10:27.079Z,90.45
2023-05-14T22:12:55.338Z,90.29
2023-05-14T22:15:23.743Z,90.99
2023-05-14T22:17:52.145Z,92.24
2023-05-14T22:20:20.574Z,92.46
2023-05-14T22:22:50.294Z,91.78
2023-05-14T22:25:18.777Z,91.86
2023-05-14T22:27:47.056Z,91.85
2023-05-14T22:30:15.535Z,92.17
2023-05-14T22:32:43.766Z,92.39
2023-05-14T22:35:12.743Z,91.16
2023-05-14T22:37:41.050Z,91.66
2023-05-14T22:40:13.591Z,91.17
2023-05-14T22:42:42.196Z,92.21
2023-05-14T22:45:11.511Z,92.40
2023-05-14T22:47:39.778Z,92.61
2023-05-14T22:50:11.623Z,93.27
2023-05-14T22:52:40.368Z,93.49
2023-05-14T22:55:11.493Z,95.19
2023-05-14T22:57:39.834Z,95.75
2023-05-14T23:00:09.988Z,95.65
2023-05-14T23:02:39.363Z,96.09
2023-05-14T23:05:09.300Z,96.05
2023-05-14T23:07:37.567Z,95.99
2023-05-14T23:10:06.762Z,96.24
2023-05-14T23:12:36.671Z,96.25
2023-05-14T23:15:05.716Z,96.13
2023-05-14T23:17:34.110Z,95.78
2023-05-14T23:20:04.934Z,95.98
2023-05-14T23:22:33.177Z,95.44
2023-05-14T23:25:01.415Z,94.32
2023-05-14T23:27:29.826Z,94.20
2023-05-14T23:29:59.454Z,93.18
2023-05-14T23:32:28.268Z,92.06
2023-05-14T23:34:56.689Z,90.04
2023-05-14T23:37:25.044Z,89.58
2023-05-14T23:39:53.447Z,90.03
2023-05-14T23:42:21.679Z,89.98
2023-05-14T23:44:50.270Z,89.93
2023-05-14T23:47:19.905Z,90.01
2023-05-14T23:49:48.182Z,90.19
2023-05-14T23:52:16.404Z,90.10
2023-05-14T23:54:44.627Z,89.82
2023-05-14T23:57:14.557Z,89.18
2023-05-14T23:59:43.260Z,88.54
